createdAt,value
2023-05-15T00:04:02.832Z,47.22
2023-05-15T00:10:44.879Z,47.32
2023-05-15T00:13:47.868Z,47.19
2023-05-15T00:20:24.469Z,47.66
2023-05-15T00:22:57.431Z,47.83
2023-05-15T00:25:36.374Z,47.88
2023-05-15T00:28:04.996Z,47.77
2023-05-15T00:30:34.040Z,47.98
2023-05-15T00:33:03.043Z,47.94
2023-05-15T00:35:31.233Z,48.17
2023-05-15T00:37:59.544Z,48.34
2023-05-15T00:40:27.173Z,48.36
2023-05-15T00:43:12.685Z,48.62
2023-05-15T00:45:41.604Z,48.91
2023-05-15T00:48:13.056Z,49.05
2023-05-15T00:50:43.256Z,49.17
2023-05-15T00:53:10.574Z,48.87
2023-05-15T00:55:37.660Z,49.48
2023-05-15T00:58:04.772Z,49.71
2023-05-15T01:00:33.361Z,48.95
2023-05-15T01:03:02.192Z,48.65
2023-05-15T01:05:29.868Z,48.83
2023-05-15T01:07:58.160Z,48.55
2023-05-15T01:10:25.345Z,48.59
2023-05-15T01:12:54.635Z,48.50
2023-05-15T01:15:21.787Z,48.52
2023-05-15T01:17:48.957Z,47.96
2023-05-15T01:20:16.182Z,48.21
2023-05-15T01:23:00.848Z,48.66
2023-05-15T01:25:57.481Z,48.09
2023-05-15T01:28:27.099Z,48.25
2023-05-15T01:30:54.702Z,48.05
2023-05-15T01:33:23.505Z,47.39
2023-05-15T01:35:53.807Z,46.40
2023-05-15T01:38:40.782Z,46.75
2023-05-15T01:41:12.032Z,47.80
2023-05-15T01:43:39.820Z,48.18
2023-05-15T01:46:08.459Z,48.44
2023-05-15T01:48:36.790Z,48.67
2023-05-15T01:51:05.071Z,48.85
2023-05-15T01:53:32.458Z,48.89
2023-05-15T01:55:59.837Z,48.95
2023-05-15T01:58:27.557Z,49.27
2023-05-15T02:00:54.691Z,49.41
2023-05-15T02:03:23.209Z,49.70
2023-05-15T02:05:50.617Z,50.94
2023-05-15T02:08:17.820Z,51.07
2023-05-15T02:10:45.014Z,50.64
2023-05-15T02:13:12.118Z,50.80
2023-05-15T02:15:39.235Z,50.71
2023-05-15T02:18:06.937Z,50.77
2023-05-15T02:20:34.300Z,50.85
2023-05-15T02:23:01.963Z,50.29
2023-05-15T02:25:40.156Z,50.20
2023-05-15T02:28:07.247Z,49.73
2023-05-15T02:30:43.785Z,49.29
2023-05-15T02:33:11.454Z,48.97
2023-05-15T02:35:47.002Z,48.58
2023-05-15T02:38:17.209Z,48.27
2023-05-15T02:40:44.723Z,47.86
2023-05-15T02:43:11.892Z,47.19
2023-05-15T02:45:39.907Z,46.64
2023-05-15T02:48:07.305Z,45.67
2023-05-15T02:50:34.497Z,44.96
2023-05-15T02:53:05.188Z,43.99
2023-05-15T02:55:32.240Z,42.63
2023-05-15T02:57:59.433Z,42.51
2023-05-15T03:00:26.580Z,42.33
2023-05-15T03:02:53.828Z,43.92
2023-05-15T03:05:21.274Z,43.61
2023-05-15T03:07:48.499Z,43.10
2023-05-15T03:10:16.067Z,42.96
2023-05-15T03:12:43.226Z,44.81
2023-05-15T03:15:10.478Z,44.11
2023-05-15T03:17:37.764Z,43.40
2023-05-15T03:20:05.358Z,42.24
2023-05-15T03:22:32.534Z,41.84
2023-05-15T03:25:02.436Z,41.26
2023-05-15T03:27:29.486Z,40.22
2023-05-15T03:29:56.769Z,39.84
2023-05-15T03:32:23.902Z,39.40
2023-05-15T03:34:51.088Z,39.31
2023-05-15T03:37:18.183Z,38.19
2023-05-15T03:39:45.442Z,37.69
2023-05-15T03:42:13.025Z,38.29
2023-05-15T03:44:41.440Z,37.16
2023-05-15T03:47:08.571Z,36.72
2023-05-15T03:49:35.648Z,35.48
2023-05-15T03:52:04.485Z,34.93
2023-05-15T03:54:31.598Z,35.48
2023-05-15T03:56:58.729Z,34.36
2023-05-15T03:59:25.850Z,32.91
2023-05-15T04:02:03.639Z,33.75
2023-05-15T04:04:32.596Z,33.46
2023-05-15T04:06:59.915Z,32.84
2023-05-15T04:09:27.014Z,32.03
2023-05-15T04:11:53.958Z,31.11
2023-05-15T04:14:21.141Z,30.38
2023-05-15T04:16:48.181Z,29.56
2023-05-15T04:19:15.700Z,28.10
2023-05-15T04:21:42.965Z,28.82
2023-05-15T04:24:10.426Z,28.74
2023-05-15T04:26:38.116Z,29.00
2023-05-15T04:29:05.354Z,28.33
2023-05-15T04:31:32.984Z,27.67
2023-05-15T04:34:00.246Z,26.79
2023-05-15T04:36:27.369Z,26.03
2023-05-15T04:38:54.508Z,25.97
2023-05-15T04:41:21.816Z,25.94
2023-05-15T04:43:49.315Z,25.16
2023-05-15T04:46:16.527Z,24.75
2023-05-15T04:48:44.218Z,23.80
2023-05-15T04:51:12.162Z,24.61
2023-05-15T04:53:39.316Z,23.64
2023-05-15T04:56:06.633Z,23.71
2023-05-15T04:58:33.796Z,23.15
2023-05-15T05:01:03.503Z,22.04
2023-05-15T05:03:31.289Z,22.58
2023-05-15T05:05:58.834Z,21.10
2023-05-15T05:08:25.995Z,21.60
2023-05-15T05:10:59.290Z,21.41
2023-05-15T05:13:26.438Z,21.32
2023-05-15T05:15:53.584Z,20.71
2023-05-15T05:18:20.750Z,20.12
2023-05-15T05:20:48.181Z,20.39
2023-05-15T05:23:15.699Z,20.12
2023-05-15T05:25:42.963Z,19.98
2023-05-15T05:28:10.163Z,19.39
2023-05-15T05:30:37.304Z,19.30
2023-05-15T05:33:04.581Z,19.14
2023-05-15T05:35:31.826Z,19.19
2023-05-15T05:37:59.086Z,18.80
2023-05-15T05:40:26.192Z,18.89
2023-05-15T05:42:53.402Z,18.22
2023-05-15T05:45:21.193Z,18.37
2023-05-15T05:47:48.479Z,18.44
2023-05-15T05:50:15.807Z,18.27
2023-05-15T05:52:43.990Z,17.89
2023-05-15T05:55:11.237Z,17.72
2023-05-15T05:57:38.473Z,18.18
2023-05-15T06:00:12.163Z,18.09
2023-05-15T06:02:39.839Z,17.55
2023-05-15T06:05:07.720Z,17.65
2023-05-15T06:07:35.442Z,17.79
2023-05-15T06:10:03.168Z,17.22
2023-05-15T06:12:30.331Z,17.31
2023-05-15T06:14:57.507Z,17.33
2023-05-15T06:17:24.746Z,16.98
2023-05-15T06:19:52.261Z,16.55
2023-05-15T06:22:19.428Z,16.90
2023-05-15T06:24:46.619Z,16.86
2023-05-15T06:27:13.757Z,16.39
2023-05-15T06:29:40.903Z,16.11
2023-05-15T06:32:08.125Z,16.06
2023-05-15T06:34:35.522Z,16.58
2023-05-15T06:37:02.681Z,16.15
2023-05-15T06:39:29.808Z,16.10
2023-05-15T06:42:01.636Z,15.69
2023-05-15T06:44:33.494Z,14.65
2023-05-15T06:47:00.649Z,14.66
2023-05-15T06:49:28.095Z,14.86
2023-05-15T06:51:55.515Z,13.70
2023-05-15T06:54:22.658Z,13.76
2023-05-15T06:56:50.194Z,13.27
2023-05-15T06:59:17.306Z,13.84
2023-05-15T07:01:44.401Z,13.03
2023-05-15T07:04:13.747Z,13.20
2023-05-15T07:06:40.936Z,12.75
2023-05-15T07:09:08.015Z,12.95
2023-05-15T07:11:37.722Z,12.26
2023-05-15T07:14:05.044Z,12.53
2023-05-15T07:16:32.178Z,12.29
2023-05-15T07:18:59.420Z,12.65
2023-05-15T07:21:26.554Z,12.39
2023-05-15T07:23:53.634Z,12.42
2023-05-15T07:26:32.450Z,12.63
2023-05-15T07:29:04.547Z,12.40
2023-05-15T07:31:32.410Z,11.99
2023-05-15T07:33:59.690Z,11.65
2023-05-15T07:36:27.062Z,11.99
2023-05-15T07:38:54.270Z,11.68
2023-05-15T07:41:22.482Z,11.33
2023-05-15T07:43:50.986Z,11.02
2023-05-15T07:46:18.239Z,11.40
2023-05-15T07:48:45.565Z,11.89
2023-05-15T07:51:12.849Z,11.70
2023-05-15T07:53:40.100Z,11.58
2023-05-15T07:56:07.547Z,10.87
2023-05-15T07:58:37.298Z,10.78
2023-05-15T08:01:05.016Z,10.53
2023-05-15T08:03:32.498Z,10.86
2023-05-15T08:06:00.309Z,10.28
2023-05-15T08:08:27.603Z,10.63
2023-05-15T08:10:54.834Z,10.84
2023-05-15T08:13:22.015Z,10.45
2023-05-15T08:15:49.318Z,9.98
2023-05-15T08:18:16.696Z,10.00
2023-05-15T08:20:44.209Z,10.36
2023-05-15T08:23:13.604Z,10.06
2023-05-15T08:25:41.144Z,9.99
2023-05-15T08:28:08.311Z,10.55
2023-05-15T08:30:36.535Z,10.71
2023-05-15T08:33:03.898Z,10.91
2023-05-15T08:35:31.279Z,10.96
2023-05-15T08:37:58.982Z,10.83
2023-05-15T08:40:38.433Z,11.32
2023-05-15T08:43:11.261Z,11.59
2023-05-15T08:45:38.503Z,11.13
2023-05-15T09:10:49.475Z,10.79
2023-05-15T09:22:34.110Z,11.11
2023-05-15T09:25:03.838Z,11.01
2023-05-15T09:27:31.251Z,11.51
2023-05-15T09:33:36.729Z,12.11
2023-05-15T09:36:05.227Z,12.34
2023-05-15T09:38:36.581Z,12.68
2023-05-15T09:41:24.301Z,13.28
2023-05-15T09:43:55.398Z,13.50
2023-05-15T09:46:24.490Z,13.75
2023-05-15T09:48:56.706Z,13.82
2023-05-15T09:51:24.657Z,13.47
2023-05-15T09:53:53.180Z,12.51
2023-05-15T09:56:30.403Z,12.71
2023-05-15T09:59:04.403Z,12.82
2023-05-15T10:01:55.481Z,12.43
2023-05-15T10:04:22.949Z,12.65
2023-05-15T10:06:51.021Z,12.71
2023-05-15T10:09:22.582Z,12.64
2023-05-15T10:11:51.296Z,12.90
2023-05-15T10:14:21.708Z,12.88
2023-05-15T10:36:34.449Z,12.77
2023-05-15T10:52:49.097Z,12.29
2023-05-15T11:26:45.734Z,18.55
2023-05-15T11:39:45.320Z,19.40
2023-05-15T13:06:45.653Z,18.36
2023-05-15T13:20:15.789Z,17.34
2023-05-15T14:07:10.121Z,15.56
2023-05-15T14:40:12.138Z,18.35
2023-05-15T15:30:42.596Z,17.72
2023-05-15T15:47:30.910Z,18.40
2023-05-15T16:15:24.098Z,19.18
2023-05-15T16:48:56.666Z,20.87
2023-05-15T16:51:24.961Z,20.73
2023-05-15T16:58:14.793Z,20.79
2023-05-15T17:00:47.885Z,20.85
2023-05-15T17:03:15.645Z,21.11
2023-05-15T17:06:18.662Z,21.22
2023-05-15T17:08:46.506Z,21.38
2023-05-15T17:11:14.059Z,21.59
2023-05-15T17:13:41.316Z,21.70
2023-05-15T17:16:09.075Z,22.01
2023-05-15T17:18:37.715Z,21.95
2023-05-15T17:21:06.169Z,22.36
2023-05-15T17:23:33.555Z,22.60
2023-05-15T17:29:52.936Z,22.88
2023-05-15T17:33:14.541Z,23.52
2023-05-15T17:39:00.427Z,23.89
2023-05-15T17:41:33.312Z,24.47
2023-05-15T18:03:48.589Z,25.92
2023-05-15T18:17:47.313Z,27.32
2023-05-15T18:20:48.871Z,27.21
2023-05-15T18:23:58.920Z,27.26
2023-05-15T18:27:35.857Z,27.68
2023-05-15T18:30:25.336Z,27.24
2023-05-15T18:32:52.892Z,27.61
2023-05-15T18:35:41.989Z,27.80
2023-05-15T18:41:59.977Z,27.83
2023-05-15T18:48:00.313Z,28.19
2023-05-15T18:50:31.300Z,28.58
2023-05-15T18:52:58.733Z,29.21
2023-05-15T18:59:11.077Z,29.56
2023-05-15T19:32:40.100Z,30.99
2023-05-15T19:45:19.901Z,31.04
2023-05-15T19:55:02.879Z,31.50
2023-05-15T19:58:48.783Z,33.00
2023-05-15T20:01:51.927Z,32.29
2023-05-15T20:08:09.915Z,33.21
2023-05-15T20:14:55.950Z,33.71
2023-05-15T20:20:57.882Z,34.29
2023-05-15T20:24:44.049Z,35.16
2023-05-15T20:31:18.908Z,34.91
2023-05-15T20:34:06.061Z,36.05
2023-05-15T20:37:36.890Z,35.86
2023-05-15T20:44:06.938Z,35.70
2023-05-15T20:49:43.510Z,34.59
2023-05-15T20:52:12.166Z,34.61
2023-05-15T20:54:50.741Z,34.10
2023-05-15T21:11:16.924Z,33.47
2023-05-15T21:18:45.773Z,34.35
2023-05-15T21:21:35.745Z,34.63
2023-05-15T21:24:06.599Z,34.86
2023-05-15T21:26:38.945Z,34.76
2023-05-15T21:29:12.714Z,34.65
2023-05-15T21:31:43.721Z,35.51
2023-05-15T21:34:11.736Z,35.40
2023-05-15T21:36:40.406Z,35.44
2023-05-15T21:39:14.073Z,35.49
2023-05-15T21:41:41.342Z,35.30
2023-05-15T21:44:08.660Z,35.53
2023-05-15T21:46:35.979Z,35.97
2023-05-15T21:49:03.680Z,35.72
2023-05-15T21:51:31.054Z,34.84
2023-05-15T21:53:58.203Z,35.19
2023-05-15T21:56:25.296Z,36.17
2023-05-15T21:58:55.532Z,36.80
2023-05-15T22:01:22.852Z,35.84
2023-05-15T22:03:53.651Z,37.29
2023-05-15T22:06:20.697Z,38.50
2023-05-15T22:08:49.219Z,39.95
2023-05-15T22:11:17.358Z,39.46
2023-05-15T22:13:44.499Z,39.25
2023-05-15T22:16:11.699Z,40.66
2023-05-15T22:18:38.891Z,41.03
2023-05-15T22:21:06.594Z,41.20
2023-05-15T22:23:33.702Z,42.64
2023-05-15T22:26:01.215Z,42.38
2023-05-15T22:28:28.344Z,40.43
2023-05-15T22:30:55.666Z,40.34
2023-05-15T22:33:25.985Z,40.52
2023-05-15T22:35:54.183Z,40.62
2023-05-15T22:38:21.777Z,40.48
2023-05-15T22:40:49.682Z,41.86
2023-05-15T22:43:16.862Z,43.44
2023-05-15T22:45:44.029Z,42.52
2023-05-15T22:48:11.170Z,41.43
2023-05-15T22:50:38.569Z,41.66
2023-05-15T22:53:05.709Z,42.65
2023-05-15T22:55:32.865Z,44.07
2023-05-15T22:57:59.977Z,43.74
2023-05-15T23:00:27.268Z,43.55
2023-05-15T23:02:55.682Z,42.69
2023-05-15T23:05:23.188Z,43.54
2023-05-15T23:07:50.318Z,42.66
2023-05-15T23:10:17.414Z,42.28
2023-05-15T23:12:44.503Z,43.34
2023-05-15T23:15:11.829Z,42.64
2023-05-15T23:17:38.986Z,42.88
2023-05-15T23:20:10.721Z,43.23
2023-05-15T23:22:37.772Z,43.48
2023-05-15T23:25:05.037Z,43.59
2023-05-15T23:27:32.208Z,43.35
2023-05-15T23:29:59.615Z,43.61
2023-05-15T23:32:27.001Z,44.26
2023-05-15T23:34:54.682Z,44.71
2023-05-15T23:37:21.789Z,45.20
2023-05-15T23:39:48.901Z,45.84
2023-05-15T23:42:16.106Z,46.00
2023-05-15T23:44:43.135Z,45.84
2023-05-15T23:47:10.182Z,45.68
2023-05-15T23:49:37.258Z,45.73
2023-05-15T23:52:04.547Z,45.43
2023-05-15T23:54:31.635Z,45.28
2023-05-15T23:56:59.232Z,45.25
2023-05-15T23:59:26.337Z,45.90
